^^
nws-alerts.php - 1.15 - 19-Aug-2013 - NWS Public Alerts
Station Historical Data
Daily Summary for March 12, 2018 Units:  English    Metric   Both
« Previous Day
Next Day »
Daily Weekly Monthly Yearly Custom
  High: Low: Average:
Temperature: 75.7 °F 55.5 °F 69 °F
Dew Point: 71.5 °F 48.5 °F 62 °F
Humidity: 95% 48% 79%
Wind Speed: 16.0mph 0.0mph 6.6mph
Wind Gust: 25.0mph - -
Wind- - West
Pressure: 30.05 in 29.81 in -
Precipitation: 0.08 in    
Historical Graphs
 
 
Tabular Data for March 12, 2018
Time Temperature Dew Point Pressure Wind Wind Speed Wind Gust Humidity Rainfall Rate (Hourly) Conditions
00:04 72.6 °F 70.5 °F 29.90 in SSW 3.3 mph 4.6 mph 93% 0.00 in 0.0 W/m2
00:09 72.6 °F 70.5 °F 29.90 in WSW 3.8 mph 5.8 mph 93% 0.00 in 0.0 W/m2
00:14 72.6 °F 70.5 °F 29.89 in West 3.6 mph 5.8 mph 93% 0.00 in 0.0 W/m2
00:19 72.7 °F 70.6 °F 29.89 in West 3.8 mph 6.9 mph 93% 0.00 in 0.0 W/m2
00:24 72.8 °F 70.7 °F 29.90 in SW 4.5 mph 6.9 mph 93% 0.00 in 0.0 W/m2
00:29 72.8 °F 70.7 °F 29.89 in WSW 3.0 mph 6.9 mph 93% 0.00 in 0.0 W/m2
00:34 72.8 °F 70.7 °F 29.89 in SW 3.5 mph 5.8 mph 93% 0.00 in 0.0 W/m2
00:39 72.7 °F 70.6 °F 29.89 in SW 2.8 mph 5.5 mph 93% 0.00 in 0.0 W/m2
00:44 72.7 °F 70.6 °F 29.89 in WSW 2.4 mph 5.8 mph 93% 0.00 in 0.0 W/m2
00:49 72.7 °F 70.6 °F 29.89 in WSW 0.1 mph 2.3 mph 93% 0.00 in 0.0 W/m2
00:54 72.6 °F 70.5 °F 29.88 in WSW 3.8 mph 6.9 mph 93% 0.00 in 0.0 W/m2
00:59 72.6 °F 70.1 °F 29.87 in SSW 4.4 mph 5.8 mph 92% 0.00 in 0.0 W/m2
01:04 72.5 °F 70.0 °F 29.87 in SSW 0.5 mph 3.5 mph 92% 0.00 in 0.0 W/m2
01:09 72.4 °F 70.3 °F 29.87 in SSW 2.2 mph 3.5 mph 93% 0.00 in 0.0 W/m2
01:14 72.3 °F 70.2 °F 29.87 in Calm   2.3 mph 93% 0.00 in 0.0 W/m2
01:19 72.2 °F 70.1 °F 29.87 in WSW 3.3 mph 4.6 mph 93% 0.00 in 0.0 W/m2
01:25 72.2 °F 69.7 °F 29.87 in WSW 2.6 mph 3.5 mph 92% 0.00 in 0.0 W/m2
01:30 72.1 °F 69.7 °F 29.87 in West 3.0 mph 6.0 mph 92% 0.00 in 0.0 W/m2
01:35 72.1 °F 69.6 °F 29.87 in West 3.0 mph 5.0 mph 92% 0.00 in 0.0 W/m2
01:40 72.1 °F 69.6 °F 29.87 in WSW 2.0 mph 7.0 mph 92% 0.00 in 0.0 W/m2
01:45 72.2 °F 69.4 °F 29.87 in WSW 3.0 mph 7.0 mph 91% 0.00 in 0.0 W/m2
01:50 72.3 °F 69.5 °F 29.87 in West 5.7 mph 7.7 mph 91% 0.00 in 0.0 W/m2
01:55 72.3 °F 69.2 °F 29.87 in WSW 5.0 mph 8.0 mph 90% 0.00 in 0.0 W/m2
02:00 72.3 °F 69.2 °F 29.87 in West 2.8 mph 5.8 mph 90% 0.00 in 0.0 W/m2
02:05 72.4 °F 69.3 °F 29.88 in WSW 8.0 mph 13.0 mph 90% 0.00 in 0.0 W/m2
02:10 72.4 °F 69.0 °F 29.87 in WSW 5.3 mph 6.9 mph 89% 0.00 in 0.0 W/m2
02:15 72.4 °F 69.0 °F 29.87 in WSW 3.0 mph 10.0 mph 89% 0.00 in 0.0 W/m2
02:20 72.4 °F 69.0 °F 29.87 in SW 5.2 mph 12.7 mph 89% 0.00 in 0.0 W/m2
02:25 72.4 °F 69.0 °F 29.86 in WSW 3.0 mph 9.0 mph 89% 0.00 in 0.0 W/m2
02:30 72.3 °F 68.9 °F 29.86 in WSW 5.0 mph 8.0 mph 89% 0.00 in 0.0 W/m2
02:35 72.1 °F 68.7 °F 29.86 in WSW 5.0 mph 7.0 mph 89% 0.00 in 0.0 W/m2
02:40 72.1 °F 69.0 °F 29.86 in WSW 2.0 mph 8.0 mph 90% 0.00 in 0.0 W/m2
02:45 71.9 °F 68.8 °F 29.86 in WSW 1.0 mph 6.0 mph 90% 0.00 in 0.0 W/m2
02:50 71.7 °F 68.9 °F 29.85 in SW 1.6 mph 3.5 mph 91% 0.01 in 0.0 W/m2
02:55 71.5 °F 68.7 °F 29.84 in SW 3.0 mph 8.0 mph 91% 0.00 in 0.0 W/m2
03:00 71.4 °F 68.6 °F 29.84 in SW 5.3 mph 6.6 mph 91% 0.03 in 0.0 W/m2
03:05 71.3 °F 68.5 °F 29.84 in SW 6.0 mph 10.0 mph 91% 0.00 in 0.0 W/m2
03:10 71.1 °F 68.3 °F 29.84 in WSW 5.0 mph 9.0 mph 91% 0.00 in 0.0 W/m2
03:15 71.0 °F 68.6 °F 29.84 in WSW 6.0 mph 9.0 mph 92% 0.01 in 0.0 W/m2
03:20 70.9 °F 68.4 °F 29.84 in SW 6.0 mph 9.0 mph 92% 0.00 in 0.0 W/m2
03:25 70.7 °F 68.3 °F 29.83 in SSW 6.0 mph 9.0 mph 92% 0.01 in 0.0 W/m2
03:30 70.6 °F 68.5 °F 29.83 in SSW 6.0 mph 9.0 mph 93% 0.00 in 0.0 W/m2
03:40 70.4 °F 68.3 °F 29.82 in SW 3.9 mph 5.8 mph 93% 0.08 in 0.0 W/m2
03:45 70.4 °F 68.6 °F 29.82 in SW 5.0 mph 9.0 mph 94% 0.00 in 0.0 W/m2
03:47 70.4 °F 68.6 °F 29.82 in SW 3.7 mph 6.9 mph 94% 0.07 in 0.0 W/m2
03:52 70.4 °F 68.6 °F 29.82 in WSW 3.8 mph 5.8 mph 94% 0.05 in 0.0 W/m2
03:57 70.4 °F 68.6 °F 29.82 in West 2.4 mph 3.5 mph 94% 0.04 in 0.0 W/m2
04:02 70.3 °F 68.5 °F 29.82 in West 2.9 mph 4.6 mph 94% 0.04 in 0.0 W/m2
04:07 70.3 °F 68.5 °F 29.83 in West 4.7 mph 6.9 mph 94% 0.03 in 0.0 W/m2
04:12 70.3 °F 68.5 °F 29.83 in WSW 2.5 mph 4.6 mph 94% 0.03 in 0.0 W/m2
04:17 70.3 °F 68.8 °F 29.82 in WSW 3.9 mph 4.6 mph 95% 0.02 in 0.0 W/m2
04:22 70.3 °F 68.8 °F 29.82 in WSW 6.7 mph 9.2 mph 95% 0.01 in 0.0 W/m2
04:28 70.4 °F 68.9 °F 29.82 in SSW 4.5 mph 6.9 mph 95% 0.01 in 0.0 W/m2
04:33 70.4 °F 68.9 °F 29.82 in SSW 2.6 mph 4.6 mph 95% 0.00 in 0.0 W/m2
04:38 70.5 °F 69.0 °F 29.82 in WSW 4.4 mph 8.1 mph 95% 0.00 in 0.0 W/m2
04:43 70.5 °F 69.0 °F 29.82 in West 2.0 mph 3.5 mph 95% 0.00 in 0.0 W/m2
04:48 70.6 °F 69.1 °F 29.82 in SW 3.9 mph 5.8 mph 95% 0.00 in 0.0 W/m2
04:53 70.6 °F 69.1 °F 29.81 in SW 3.7 mph 5.8 mph 95% 0.00 in 0.0 W/m2
04:58 70.6 °F 68.8 °F 29.81 in WSW 2.1 mph 3.5 mph 94% 0.00 in 0.0 W/m2
05:03 70.6 °F 69.1 °F 29.82 in SW 4.0 mph 5.8 mph 95% 0.00 in 0.0 W/m2
05:08 70.6 °F 68.8 °F 29.81 in WSW 2.8 mph 4.4 mph 94% 0.00 in 0.0 W/m2
05:13 70.6 °F 68.8 °F 29.81 in WSW 2.8 mph 3.5 mph 94% 0.00 in 0.0 W/m2
05:18 70.5 °F 68.7 °F 29.81 in West 2.3 mph 3.5 mph 94% 0.00 in 0.0 W/m2
05:23 70.4 °F 68.9 °F 29.81 in West 4.1 mph 5.8 mph 95% 0.00 in 0.0 W/m2
05:28 70.3 °F 68.5 °F 29.82 in West 2.4 mph 3.5 mph 94% 0.00 in 0.0 W/m2
05:33 70.3 °F 68.5 °F 29.81 in WSW 2.6 mph 4.6 mph 94% 0.00 in 0.0 W/m2
05:38 70.3 °F 68.5 °F 29.82 in West 3.0 mph 4.6 mph 94% 0.00 in 0.0 W/m2
05:43 70.2 °F 68.4 °F 29.82 in WNW 3.2 mph 6.9 mph 94% 0.00 in 0.0 W/m2
05:48 70.1 °F 68.3 °F 29.82 in West 2.7 mph 3.5 mph 94% 0.00 in 0.0 W/m2
05:54 70.1 °F 68.3 °F 29.82 in SW 0.9 mph 2.3 mph 94% 0.00 in 0.0 W/m2
05:59 70.1 °F 68.3 °F 29.81 in WSW 2.1 mph 3.5 mph 94% 0.00 in 0.0 W/m2
06:04 70.1 °F 68.3 °F 29.82 in West 2.7 mph 4.6 mph 94% 0.00 in 0.0 W/m2
06:09 70.0 °F 68.2 °F 29.82 in WSW 1.4 mph 2.3 mph 94% 0.00 in 0.0 W/m2
06:14 70.0 °F 68.2 °F 29.81 in SSW 1.4 mph 2.3 mph 94% 0.00 in 0.0 W/m2
06:19 69.9 °F 68.1 °F 29.81 in SW 2.4 mph 3.5 mph 94% 0.00 in 0.0 W/m2
06:24 69.8 °F 68.0 °F 29.81 in Calm     94% 0.00 in 0.0 W/m2
06:29 69.8 °F 68.0 °F 29.81 in WSW 3.1 mph 4.6 mph 94% 0.00 in 0.0 W/m2
06:34 69.8 °F 68.0 °F 29.82 in SW 3.4 mph 4.6 mph 94% 0.00 in 0.0 W/m2
06:39 69.9 °F 68.1 °F 29.82 in WSW 3.2 mph 3.5 mph 94% 0.00 in 0.0 W/m2
06:44 69.8 °F 67.7 °F 29.82 in SW 1.6 mph 2.3 mph 93% 0.00 in 0.0 W/m2
06:49 69.7 °F 67.9 °F 29.82 in WSW 0.9 mph 2.3 mph 94% 0.00 in 0.0 W/m2
06:54 69.7 °F 67.9 °F 29.82 in WSW 2.3 mph 3.5 mph 94% 0.00 in 0.0 W/m2
06:59 69.7 °F 67.6 °F 29.82 in SW 3.0 mph 3.5 mph 93% 0.00 in 0.0 W/m2
07:04 69.7 °F 67.6 °F 29.82 in WSW 3.2 mph 6.9 mph 93% 0.00 in 0.0 W/m2
07:09 69.8 °F 67.7 °F 29.83 in SW 3.9 mph 5.8 mph 93% 0.00 in 0.0 W/m2
07:14 69.9 °F 67.8 °F 29.83 in WSW 4.1 mph 5.8 mph 93% 0.00 in 0.0 W/m2
07:19 70.0 °F 67.6 °F 29.83 in WSW 4.9 mph 4.9 mph 92% 0.00 in 0.0 W/m2
07:24 70.0 °F 67.6 °F 29.83 in SW 3.5 mph 5.8 mph 92% 0.00 in 0.0 W/m2
07:30 70.0 °F 67.6 °F 29.83 in WSW 3.6 mph 3.6 mph 92% 0.00 in 0.0 W/m2
07:35 70.1 °F 67.6 °F 29.83 in WSW 3.0 mph 7.0 mph 92% 0.00 in 0.0 W/m2
07:40 70.1 °F 67.7 °F 29.84 in WSW 3.0 mph 6.6 mph 92% 0.00 in 0.0 W/m2
07:45 70.1 °F 67.7 °F 29.84 in WSW 3.0 mph 7.0 mph 92% 0.00 in 0.0 W/m2
07:50 70.3 °F 67.9 °F 29.84 in WSW 3.1 mph 5.8 mph 92% 0.00 in 0.0 W/m2
07:55 70.3 °F 67.9 °F 29.84 in SW 5.0 mph 6.0 mph 92% 0.00 in 0.0 W/m2
08:00 70.4 °F 68.0 °F 29.83 in SW 3.0 mph 7.0 mph 92% 0.00 in 0.0 W/m2
08:05 70.5 °F 68.1 °F 29.84 in SW 2.0 mph 3.0 mph 92% 0.00 in 0.0 W/m2
08:10 70.6 °F 68.1 °F 29.84 in WSW 2.0 mph 6.0 mph 92% 0.00 in 0.0 W/m2
08:15 70.6 °F 68.5 °F 29.84 in West 2.8 mph 3.5 mph 93% 0.00 in 0.0 W/m2
08:20 70.7 °F 68.5 °F 29.84 in West 2.0 mph 5.0 mph 93% 0.00 in 0.0 W/m2
08:25 70.9 °F 68.8 °F 29.85 in WSW 5.0 mph 7.0 mph 93% 0.00 in 0.0 W/m2
08:30 71.1 °F 69.0 °F 29.85 in West 2.0 mph 6.0 mph 93% 0.00 in 0.0 W/m2
08:35 71.2 °F 69.4 °F 29.85 in West 3.0 mph 6.0 mph 94% 0.00 in 0.0 W/m2
08:40 71.3 °F 69.5 °F 29.85 in West 2.0 mph 6.0 mph 94% 0.00 in 0.0 W/m2
08:45 71.5 °F 69.6 °F 29.85 in West 3.0 mph 7.0 mph 94% 0.00 in 0.0 W/m2
08:50 71.7 °F 69.9 °F 29.85 in West 5.0 mph 8.0 mph 94% 0.00 in 0.0 W/m2
08:55 71.9 °F 69.8 °F 29.85 in West 5.0 mph 8.0 mph 93% 0.00 in 0.0 W/m2
09:00 72.1 °F 69.9 °F 29.85 in WSW 6.0 mph 9.0 mph 93% 0.00 in 0.0 W/m2
09:05 72.2 °F 70.1 °F 29.85 in WSW 5.0 mph 10.0 mph 93% 0.00 in 0.0 W/m2
09:10 72.4 °F 69.9 °F 29.86 in WSW 8.0 mph 13.0 mph 92% 0.00 in 0.0 W/m2
09:15 72.9 °F 70.7 °F 29.86 in West 5.0 mph 10.0 mph 93% 0.00 in 22.2 W/m2
09:20 73.2 °F 70.7 °F 29.86 in West 5.0 mph 10.0 mph 92% 0.00 in 50.4 W/m2
09:25 73.4 °F 70.9 °F 29.86 in West 5.0 mph 9.0 mph 92% 0.00 in 50.4 W/m2
09:30 73.5 °F 70.7 °F 29.86 in West 8.0 mph 10.0 mph 91% 0.00 in 42.2 W/m2
09:35 73.9 °F 71.1 °F 29.86 in West 5.0 mph 11.0 mph 91% 0.00 in 44.1 W/m2
09:40 74.5 °F 71.4 °F 29.86 in West 6.6 mph 8.1 mph 90% 0.00 in 73.2 W/m2
09:45 74.8 °F 71.3 °F 29.86 in WSW 7.0 mph 10.0 mph 89% 0.00 in 65.0 W/m2
09:50 75.3 °F 71.5 °F 29.86 in West 8.1 mph 8.1 mph 88% 0.00 in 63.2 W/m2
09:55 75.2 °F 71.1 °F 29.87 in West 7.0 mph 10.0 mph 87% 0.00 in 138.7 W/m2
10:00 75.1 °F 70.6 °F 29.87 in WSW 8.2 mph 12.7 mph 86% 0.00 in 138.7 W/m2
10:05 75.2 °F 71.0 °F 29.87 in WSW 8.0 mph 13.0 mph 87% 0.00 in 63.2 W/m2
10:10 75.2 °F 70.7 °F 29.86 in WSW 5.9 mph 11.5 mph 86% 0.00 in 65.0 W/m2
10:15 75.7 °F 71.2 °F 29.87 in West 7.0 mph 12.0 mph 86% 0.00 in 90.5 W/m2
10:20 75.5 °F 71.0 °F 29.88 in West 16.0 mph 16.0 mph 86% 0.00 in 450.8 W/m2
10:25 73.6 °F 67.1 °F 29.88 in WNW 13.0 mph 21.0 mph 80% 0.00 in 28.6 W/m2
10:30 72.4 °F 65.9 °F 29.88 in WNW 9.2 mph 12.7 mph 80% 0.00 in 23.1 W/m2
10:35 72.2 °F 65.3 °F 29.88 in WNW 7.0 mph 14.0 mph 79% 0.00 in 23.1 W/m2
10:40 72.4 °F 65.5 °F 29.88 in NW 8.5 mph 8.8 mph 79% 0.00 in 23.1 W/m2
10:45 73.1 °F 66.2 °F 29.88 in WNW 8.0 mph 15.0 mph 79% 0.00 in 28.6 W/m2
10:50 73.4 °F 66.1 °F 29.88 in NW 7.4 mph 8.8 mph 78% 0.00 in 449.0 W/m2
10:55 73.7 °F 66.8 °F 29.88 in NW 5.0 mph 9.0 mph 79% 0.00 in 448.1 W/m2
11:00 73.6 °F 66.3 °F 29.88 in NNW 9.0 mph 12.0 mph 78% 0.00 in 448.1 W/m2
11:05 73.3 °F 66.0 °F 29.88 in NW 8.0 mph 13.0 mph 78% 0.00 in 448.1 W/m2
11:10 73.5 °F 66.2 °F 29.88 in NW 7.0 mph 12.0 mph 78% 0.00 in 388.0 W/m2
11:15 73.7 °F 66.0 °F 29.88 in NW 6.0 mph 12.0 mph 77% 0.00 in 422.6 W/m2
11:20 74.0 °F 65.6 °F 29.88 in NW 7.0 mph 12.0 mph 75% 0.00 in 422.6 W/m2
11:25 73.4 °F 65.0 °F 29.88 in NNW 5.0 mph 13.0 mph 75% 0.00 in 388.0 W/m2
11:30 73.0 °F 64.6 °F 29.89 in NW 7.0 mph 10.0 mph 75% 0.00 in 448.1 W/m2
11:35 73.0 °F 65.0 °F 29.89 in NW 6.0 mph 10.0 mph 76% 0.00 in 32.2 W/m2
11:40 73.5 °F 65.1 °F 29.89 in NW 7.0 mph 9.0 mph 75% 0.00 in 401.7 W/m2
11:45 73.3 °F 63.7 °F 29.89 in WNW 8.0 mph 13.0 mph 72% 0.00 in 401.7 W/m2
11:50 73.2 °F 63.2 °F 29.90 in WNW 10.0 mph 13.0 mph 71% 0.00 in 421.7 W/m2
11:55 73.2 °F 63.2 °F 29.90 in WNW 6.5 mph 8.1 mph 71% 0.00 in 441.7 W/m2
12:00 73.3 °F 63.3 °F 29.90 in NW 5.0 mph 9.0 mph 71% 0.00 in 441.7 W/m2
12:05 73.5 °F 63.1 °F 29.90 in WNW 7.0 mph 10.4 mph 70% 0.00 in 410.8 W/m2
12:10 73.7 °F 62.9 °F 29.90 in NW 8.0 mph 13.0 mph 69% 0.00 in 425.3 W/m2
12:15 73.8 °F 62.6 °F 29.90 in NW 8.0 mph 13.0 mph 68% 0.00 in 422.6 W/m2
12:20 73.8 °F 61.7 °F 29.91 in NW 8.0 mph 18.0 mph 66% 0.00 in 422.6 W/m2
12:25 73.6 °F 61.5 °F 29.91 in NW 5.0 mph 13.0 mph 66% 0.00 in 393.5 W/m2
12:30 73.5 °F 61.4 °F 29.90 in NW 6.0 mph 10.0 mph 66% 0.00 in 89.6 W/m2
12:35 73.7 °F 62.1 °F 29.90 in NW 6.0 mph 13.0 mph 67% 0.00 in 321.6 W/m2
12:40 74.0 °F 61.5 °F 29.90 in WNW 7.0 mph 13.0 mph 65% 0.00 in 449.0 W/m2
12:45 73.9 °F 61.4 °F 29.90 in WNW 9.0 mph 14.0 mph 65% 0.00 in 321.6 W/m2
12:50 73.9 °F 61.8 °F 29.90 in WNW 5.1 mph 6.9 mph 66% 0.00 in 321.6 W/m2
12:55 73.8 °F 60.9 °F 29.90 in NW 10.0 mph 14.0 mph 64% 0.00 in 418.1 W/m2
13:00 73.4 °F 60.9 °F 29.90 in NW 12.0 mph 18.0 mph 65% 0.00 in 418.1 W/m2
13:05 73.2 °F 60.3 °F 29.90 in WNW 12.0 mph 13.0 mph 64% 0.00 in 418.1 W/m2
13:10 72.9 °F 59.6 °F 29.91 in WNW 10.2 mph 15.0 mph 63% 0.00 in 71.3 W/m2
13:15 72.7 °F 60.2 °F 29.91 in WNW 7.0 mph 13.0 mph 65% 0.00 in 71.3 W/m2
13:20 72.7 °F 60.3 °F 29.91 in NW 6.1 mph 11.5 mph 65% 0.00 in 27.7 W/m2
13:25 72.9 °F 60.4 °F 29.91 in WNW 8.0 mph 19.0 mph 65% 0.00 in 329.8 W/m2
13:30 72.2 °F 60.2 °F 29.90 in NW 15.0 mph 15.0 mph 66% 0.00 in 53.2 W/m2
13:35 72.6 °F 60.6 °F 29.91 in WNW 15.0 mph 25.0 mph 66% 0.00 in 458.1 W/m2
13:40 72.7 °F 61.1 °F 29.90 in WNW 10.0 mph 15.0 mph 67% 0.00 in 434.4 W/m2
13:45 72.6 °F 61.4 °F 29.90 in WNW 8.0 mph 18.0 mph 68% 0.00 in 434.4 W/m2
13:50 72.5 °F 61.4 °F 29.90 in WNW 5.0 mph 18.0 mph 68% 0.00 in 463.6 W/m2
13:55 73.4 °F 62.2 °F 29.90 in WNW 8.0 mph 21.0 mph 68% 0.00 in 221.5 W/m2
14:00 73.9 °F 62.2 °F 29.90 in WNW 14.0 mph 21.0 mph 67% 0.00 in 452.6 W/m2
14:05 73.5 °F 62.3 °F 29.89 in NW 12.0 mph 16.1 mph 68% 0.00 in 221.5 W/m2
14:10 73.3 °F 62.1 °F 29.89 in WNW 14.0 mph 24.0 mph 68% 0.00 in 458.1 W/m2
14:15 73.0 °F 61.8 °F 29.90 in WNW 10.0 mph 19.0 mph 68% 0.00 in 458.1 W/m2
14:20 72.3 °F 61.6 °F 29.90 in WNW 10.0 mph 18.0 mph 69% 0.00 in 423.5 W/m2
14:25 71.9 °F 62.0 °F 29.90 in NW 11.3 mph 12.7 mph 71% 0.00 in 401.7 W/m2
14:30 71.2 °F 61.7 °F 29.89 in WNW 12.0 mph 23.0 mph 72% 0.00 in 422.6 W/m2
14:35 71.0 °F 61.9 °F 29.90 in NNW 8.9 mph 15.0 mph 73% 0.00 in 422.6 W/m2
14:40 70.4 °F 61.7 °F 29.89 in NW 8.4 mph 13.2 mph 74% 0.00 in 72.3 W/m2
14:45 70.1 °F 61.8 °F 29.90 in NW 7.5 mph 11.5 mph 75% 0.00 in 25.8 W/m2
14:50 70.0 °F 61.7 °F 29.90 in West 9.2 mph 15.4 mph 75% 0.00 in 52.2 W/m2
14:55 69.6 °F 61.7 °F 29.90 in NW 9.9 mph 12.7 mph 76% 0.00 in 52.2 W/m2
15:00 69.7 °F 61.8 °F 29.90 in NNW 9.4 mph 12.7 mph 76% 0.00 in 24.9 W/m2
15:05 69.7 °F 61.8 °F 29.90 in NW 6.8 mph 9.2 mph 76% 0.00 in 36.8 W/m2
15:10 70.3 °F 62.0 °F 29.89 in WNW 8.1 mph 13.8 mph 75% 0.00 in 36.8 W/m2
15:15 70.0 °F 61.3 °F 29.89 in NW 15.1 mph 20.7 mph 74% 0.00 in 436.3 W/m2
15:20 70.1 °F 61.8 °F 29.88 in NW 9.2 mph 13.8 mph 75% 0.00 in 441.7 W/m2
15:25 71.7 °F 62.2 °F 29.89 in WNW 15.9 mph 20.7 mph 72% 0.00 in 418.1 W/m2
15:30 71.7 °F 61.8 °F 29.90 in NNW 13.1 mph 17.3 mph 71% 0.00 in 418.1 W/m2
15:35 72.3 °F 62.4 °F 29.89 in West 10.5 mph 16.1 mph 71% 0.00 in 441.7 W/m2
15:40 72.6 °F 61.8 °F 29.90 in West 14.3 mph 17.3 mph 69% 0.00 in 492.7 W/m2
15:45 72.1 °F 62.6 °F 29.90 in WNW 14.4 mph 17.6 mph 72% 0.00 in 486.3 W/m2
15:50 71.7 °F 61.8 °F 29.89 in NW 14.2 mph 20.7 mph 71% 0.00 in 485.4 W/m2
15:56 71.9 °F 62.4 °F 29.89 in WSW 12.6 mph 12.7 mph 72% 0.00 in 478.1 W/m2
16:01 71.0 °F 61.9 °F 29.90 in WNW 12.5 mph 23.0 mph 73% 0.00 in 467.2 W/m2
16:06 70.8 °F 61.7 °F 29.89 in WNW 12.6 mph 12.6 mph 73% 0.00 in 467.2 W/m2
16:11 71.3 °F 61.4 °F 29.89 in West 12.3 mph 19.8 mph 71% 0.00 in 478.1 W/m2
16:16 71.2 °F 61.3 °F 29.90 in WNW 9.2 mph 11.5 mph 71% 0.00 in 485.4 W/m2
16:21 71.3 °F 60.2 °F 29.90 in NW 13.9 mph 18.4 mph 68% 0.00 in 486.3 W/m2
16:26 71.7 °F 60.6 °F 29.89 in WNW 11.2 mph 16.1 mph 68% 0.00 in 478.1 W/m2
16:31 72.3 °F 59.4 °F 29.89 in NW 13.0 mph 20.7 mph 64% 0.00 in 469.9 W/m2
16:36 72.4 °F 59.1 °F 29.90 in WNW 9.6 mph 16.1 mph 63% 0.00 in 469.9 W/m2
16:41 72.0 °F 56.9 °F 29.90 in WNW 16.0 mph 21.9 mph 59% 0.00 in 458.1 W/m2
16:46 72.2 °F 56.1 °F 29.90 in West 10.9 mph 13.8 mph 57% 0.00 in 459.0 W/m2
16:51 71.9 °F 55.3 °F 29.91 in NW 14.1 mph 15.0 mph 56% 0.00 in 456.3 W/m2
16:56 71.6 °F 52.0 °F 29.91 in NW 13.2 mph 16.1 mph 50% 0.00 in 456.3 W/m2
17:01 71.6 °F 52.0 °F 29.91 in WNW 12.1 mph 17.3 mph 50% 0.00 in 459.0 W/m2
17:06 71.9 °F 51.7 °F 29.91 in NW 14.4 mph 18.7 mph 49% 0.00 in 447.2 W/m2
17:11 71.5 °F 51.3 °F 29.91 in WNW 11.6 mph 20.7 mph 49% 0.00 in 437.2 W/m2
17:16 71.4 °F 51.8 °F 29.91 in West 13.1 mph 19.6 mph 50% 0.00 in 441.7 W/m2
17:21 71.3 °F 52.2 °F 29.91 in WNW 8.8 mph 13.2 mph 51% 0.00 in 441.7 W/m2
17:27 71.4 °F 51.2 °F 29.90 in WNW 13.4 mph 13.4 mph 49% 0.00 in 428.1 W/m2
17:32 71.6 °F 52.0 °F 29.91 in NW 11.9 mph 15.4 mph 50% 0.00 in 418.1 W/m2
17:37 71.2 °F 51.6 °F 29.91 in WNW 13.9 mph 15.0 mph 50% 0.00 in 411.7 W/m2
17:42 71.0 °F 50.3 °F 29.91 in NW 13.2 mph 15.0 mph 48% 0.00 in 378.0 W/m2
17:47 70.7 °F 50.6 °F 29.91 in WNW 9.3 mph 16.5 mph 49% 0.00 in 418.1 W/m2
17:52 70.4 °F 50.3 °F 29.92 in WNW 12.8 mph 18.4 mph 49% 0.00 in 418.1 W/m2
17:57 69.9 °F 50.9 °F 29.91 in West 12.8 mph 16.1 mph 51% 0.00 in 63.2 W/m2
18:02 69.5 °F 51.6 °F 29.91 in WNW 7.3 mph 12.7 mph 53% 0.00 in 43.1 W/m2
18:07 69.5 °F 50.0 °F 29.92 in WNW 10.8 mph 13.8 mph 50% 0.00 in 43.1 W/m2
18:12 69.3 °F 51.4 °F 29.92 in WNW 10.5 mph 13.8 mph 53% 0.00 in 35.0 W/m2
18:17 69.0 °F 52.2 °F 29.92 in West 8.7 mph 10.4 mph 55% 0.00 in 14.9 W/m2
18:22 68.8 °F 53.4 °F 29.92 in West 9.4 mph 10.4 mph 58% 0.00 in 8.6 W/m2
18:27 68.5 °F 53.1 °F 29.92 in West 5.9 mph 12.7 mph 58% 0.00 in 2.2 W/m2
18:32 68.5 °F 53.1 °F 29.92 in WNW 9.0 mph 12.7 mph 58% 0.00 in 0.0 W/m2
18:37 68.0 °F 51.7 °F 29.92 in WNW 11.2 mph 13.8 mph 56% 0.00 in 0.0 W/m2
18:42 67.5 °F 52.7 °F 29.92 in NW 10.8 mph 13.8 mph 59% 0.00 in 0.0 W/m2
18:47 67.1 °F 53.2 °F 29.93 in NW 9.9 mph 13.8 mph 61% 0.00 in 0.0 W/m2
18:52 67.0 °F 54.0 °F 29.93 in WNW 6.6 mph 11.5 mph 63% 0.00 in 0.0 W/m2
18:58 66.6 °F 54.0 °F 29.93 in WNW 9.4 mph 14.3 mph 64% 0.00 in 0.0 W/m2
19:03 66.2 °F 54.1 °F 29.92 in NW 5.2 mph 6.9 mph 65% 0.00 in 0.0 W/m2
19:08 65.7 °F 54.8 °F 29.93 in West 11.9 mph 13.8 mph 68% 0.00 in 0.0 W/m2
19:13 65.3 °F 54.9 °F 29.93 in WNW 10.8 mph 12.7 mph 69% 0.00 in 0.0 W/m2
19:18 64.7 °F 54.7 °F 29.94 in NW 10.2 mph 12.7 mph 70% 0.00 in 0.0 W/m2
19:23 64.3 °F 54.7 °F 29.94 in West 7.2 mph 10.4 mph 71% 0.00 in 0.0 W/m2
19:28 63.7 °F 54.5 °F 29.94 in NW 5.7 mph 9.2 mph 72% 0.00 in 0.0 W/m2
19:33 63.3 °F 53.7 °F 29.94 in WNW 9.0 mph 15.0 mph 71% 0.00 in 0.0 W/m2
19:38 62.7 °F 53.2 °F 29.94 in WNW 8.1 mph 12.7 mph 71% 0.00 in 0.0 W/m2
19:43 62.2 °F 52.7 °F 29.94 in WNW 8.1 mph 12.7 mph 71% 0.00 in 2.2 W/m2
19:48 61.9 °F 53.1 °F 29.95 in WNW 7.3 mph 13.2 mph 73% 0.00 in 2.2 W/m2
19:53 61.6 °F 53.2 °F 29.95 in NW 5.2 mph 11.5 mph 74% 0.00 in 0.0 W/m2
19:58 61.4 °F 53.0 °F 29.95 in WNW 4.9 mph 9.2 mph 74% 0.00 in 0.0 W/m2
20:03 61.3 °F 53.3 °F 29.95 in NW 8.8 mph 12.7 mph 75% 0.00 in 0.0 W/m2
20:08 61.0 °F 53.0 °F 29.96 in NW 9.2 mph 12.7 mph 75% 0.00 in 0.0 W/m2
20:13 60.9 °F 53.3 °F 29.96 in WNW 6.6 mph 9.2 mph 76% 0.00 in 0.0 W/m2
20:18 60.6 °F 53.0 °F 29.96 in WNW 11.6 mph 13.2 mph 76% 0.00 in 0.0 W/m2
20:23 60.4 °F 52.4 °F 29.96 in NW 7.0 mph 9.9 mph 75% 0.00 in 0.0 W/m2
20:29 60.3 °F 52.3 °F 29.96 in WNW 10.1 mph 16.1 mph 75% 0.00 in 0.0 W/m2
20:34 60.1 °F 52.5 °F 29.97 in NW 8.6 mph 13.8 mph 76% 0.00 in 0.0 W/m2
20:39 59.9 °F 52.0 °F 29.97 in NW 11.3 mph 13.8 mph 75% 0.00 in 0.0 W/m2
20:44 59.7 °F 51.4 °F 29.97 in WNW 9.4 mph 12.7 mph 74% 0.00 in 0.0 W/m2
20:49 59.6 °F 51.3 °F 29.97 in NNW 8.6 mph 12.7 mph 74% 0.00 in 0.0 W/m2
20:54 59.5 °F 51.2 °F 29.98 in NW 9.5 mph 13.8 mph 74% 0.00 in 0.0 W/m2
20:59 59.4 °F 51.1 °F 29.98 in NNW 6.6 mph 12.7 mph 74% 0.00 in 0.0 W/m2
21:04 59.1 °F 50.8 °F 29.98 in NW 11.8 mph 15.0 mph 74% 0.00 in 0.0 W/m2
21:09 59.0 °F 51.1 °F 29.98 in NNW 6.0 mph 8.1 mph 75% 0.00 in 0.0 W/m2
21:14 58.8 °F 50.9 °F 29.98 in NW 9.5 mph 12.7 mph 75% 0.00 in 0.0 W/m2
21:19 58.6 °F 50.7 °F 29.98 in WNW 5.9 mph 6.9 mph 75% 0.00 in 0.0 W/m2
21:24 58.4 °F 50.9 °F 29.98 in NW 7.4 mph 10.4 mph 76% 0.00 in 0.0 W/m2
21:29 58.2 °F 50.7 °F 29.99 in NW 7.7 mph 9.2 mph 76% 0.00 in 0.0 W/m2
21:34 58.1 °F 50.6 °F 29.98 in North 5.3 mph 10.4 mph 76% 0.00 in 0.0 W/m2
21:39 58.0 °F 50.5 °F 29.99 in NW 6.5 mph 8.1 mph 76% 0.00 in 0.0 W/m2
21:44 57.7 °F 50.2 °F 29.99 in NW 3.4 mph 8.1 mph 76% 0.00 in 0.0 W/m2
21:49 57.4 °F 50.2 °F 29.99 in NW 4.2 mph 5.5 mph 77% 0.00 in 0.0 W/m2
21:54 57.2 °F 50.1 °F 29.99 in NW 6.6 mph 8.8 mph 77% 0.00 in 0.0 W/m2
21:59 57.1 °F 50.0 °F 29.99 in NNW 3.1 mph 9.2 mph 77% 0.00 in 0.0 W/m2
22:05 56.9 °F 49.8 °F 29.99 in North 5.6 mph 8.1 mph 77% 0.00 in 0.0 W/m2
22:10 56.8 °F 50.0 °F 30.00 in WNW 5.7 mph 6.6 mph 78% 0.00 in 0.0 W/m2
22:15 56.7 °F 49.9 °F 30.00 in NW 6.0 mph 10.0 mph 78% 0.00 in 0.0 W/m2
22:20 56.6 °F 49.8 °F 30.00 in NW 4.5 mph 8.1 mph 78% 0.00 in 0.0 W/m2
22:25 56.5 °F 49.4 °F 30.00 in NW 5.0 mph 9.0 mph 77% 0.00 in 0.0 W/m2
22:30 56.5 °F 49.4 °F 30.01 in NW 6.0 mph 12.0 mph 77% 0.00 in 0.0 W/m2
22:35 56.4 °F 49.6 °F 30.01 in NW 5.0 mph 10.0 mph 78% 0.00 in 0.0 W/m2
22:40 56.4 °F 49.6 °F 30.01 in NW 6.0 mph 12.0 mph 78% 0.00 in 0.0 W/m2
22:45 56.3 °F 49.5 °F 30.01 in NNW 5.0 mph 8.0 mph 78% 0.00 in 0.0 W/m2
22:50 56.2 °F 49.4 °F 30.02 in NNW 5.0 mph 13.0 mph 78% 0.00 in 0.0 W/m2
22:55 56.2 °F 49.4 °F 30.02 in NW 5.0 mph 12.0 mph 78% 0.00 in 0.0 W/m2
23:00 56.2 °F 49.1 °F 30.02 in NNW 6.0 mph 10.0 mph 77% 0.00 in 0.0 W/m2
23:05 56.2 °F 49.1 °F 30.02 in NW 3.0 mph 10.0 mph 77% 0.00 in 0.0 W/m2
23:10 55.9 °F 48.8 °F 30.03 in NNW 3.0 mph 8.0 mph 77% 0.00 in 0.0 W/m2
23:15 56.0 °F 48.9 °F 30.03 in NNW 4.8 mph 8.1 mph 77% 0.00 in 0.0 W/m2
23:20 55.9 °F 48.8 °F 30.03 in NW 6.0 mph 9.0 mph 77% 0.00 in 0.0 W/m2
23:25 55.9 °F 48.8 °F 30.03 in NW 5.0 mph 10.0 mph 77% 0.00 in 0.0 W/m2
23:30 55.9 °F 48.8 °F 30.03 in NW 5.0 mph 10.0 mph 77% 0.00 in 0.0 W/m2
23:35 55.8 °F 48.7 °F 30.03 in NNW 5.0 mph 10.0 mph 77% 0.00 in 0.0 W/m2
23:40 55.7 °F 48.6 °F 30.04 in NW 3.0 mph 8.0 mph 77% 0.00 in 0.0 W/m2
23:45 55.6 °F 48.5 °F 30.04 in NW 3.0 mph 7.0 mph 77% 0.00 in 0.0 W/m2
23:50 55.6 °F 48.5 °F 30.05 in NW 3.0 mph 8.0 mph 77% 0.00 in 0.0 W/m2
23:55 55.5 °F 48.8 °F 30.05 in NNW 5.0 mph 7.0 mph 78% 0.00 in 0.0 W/m2
Juneau County Weather
Compliments of Weather Underground - 3.25 mb